createdAt,value
2022-11-24T00:01:28.415Z,2.60
2022-11-24T00:04:00.097Z,2.70
2022-11-24T00:06:30.456Z,2.70
2022-11-24T00:09:00.162Z,2.60
2022-11-24T00:11:30.531Z,2.70
2022-11-24T00:14:00.482Z,2.70
2022-11-24T00:16:32.214Z,2.80
2022-11-24T00:19:03.781Z,3.00
2022-11-24T00:21:33.538Z,2.90
2022-11-24T00:24:02.631Z,3.10
2022-11-24T00:26:33.124Z,2.90
2022-11-24T00:29:04.885Z,2.80
2022-11-24T00:31:37.368Z,2.70
2022-11-24T00:34:08.960Z,2.60
2022-11-24T00:36:38.814Z,2.70
2022-11-24T00:39:09.757Z,2.60
2022-11-24T00:41:38.902Z,2.60
2022-11-24T00:44:08.085Z,2.70
2022-11-24T00:46:38.507Z,2.70
2022-11-24T00:49:07.216Z,2.80
2022-11-24T00:51:35.792Z,2.60
2022-11-24T00:54:04.163Z,2.60
2022-11-24T00:56:32.789Z,2.60
2022-11-24T00:59:01.198Z,2.60
2022-11-24T01:01:31.616Z,2.60
2022-11-24T01:04:02.809Z,2.70
2022-11-24T01:06:33.602Z,2.70
2022-11-24T01:09:01.898Z,2.60
2022-11-24T01:11:54.321Z,2.70
2022-11-24T01:14:25.446Z,2.60
2022-11-24T01:16:54.554Z,2.60
2022-11-24T01:19:24.720Z,2.70
2022-11-24T01:21:52.913Z,2.60
2022-11-24T01:24:21.222Z,2.60
2022-11-24T01:26:49.553Z,2.60
2022-11-24T01:29:18.391Z,2.50
2022-11-24T01:31:46.680Z,2.50
2022-11-24T01:34:14.949Z,2.60
2022-11-24T01:36:44.659Z,2.60
2022-11-24T01:39:13.534Z,2.60
2022-11-24T01:41:41.895Z,2.60
2022-11-24T01:44:27.895Z,2.80
2022-11-24T01:47:03.982Z,2.70
2022-11-24T01:49:40.788Z,2.90
2022-11-24T01:52:16.883Z,2.80
2022-11-24T01:54:52.826Z,2.70
2022-11-24T01:57:27.197Z,2.60
2022-11-24T02:00:01.082Z,2.60
2022-11-24T02:02:31.317Z,2.60
2022-11-24T02:05:07.152Z,2.60
2022-11-24T02:07:38.279Z,2.50
2022-11-24T02:10:14.374Z,2.50
2022-11-24T02:12:47.500Z,2.50
2022-11-24T02:15:17.651Z,2.50
2022-11-24T02:17:45.948Z,2.40
2022-11-24T02:20:16.528Z,2.40
2022-11-24T02:22:55.365Z,2.50
2022-11-24T02:25:37.461Z,2.50
2022-11-24T02:28:11.703Z,2.50
2022-11-24T02:30:40.626Z,2.50
2022-11-24T02:33:09.110Z,2.50
2022-11-24T02:35:37.957Z,2.50
2022-11-24T02:38:06.313Z,2.40
2022-11-24T02:40:34.840Z,2.50
2022-11-24T02:43:12.486Z,2.60
2022-11-24T02:45:41.120Z,2.50
2022-11-24T02:48:09.650Z,2.60
2022-11-24T02:50:38.702Z,2.70
2022-11-24T02:53:06.986Z,2.70
2022-11-24T02:55:37.187Z,2.60
2022-11-24T02:58:06.845Z,2.60
2022-11-24T03:00:35.206Z,2.50
2022-11-24T03:03:04.524Z,2.80
2022-11-24T03:05:32.817Z,2.60
2022-11-24T03:08:01.258Z,2.50
2022-11-24T03:10:29.672Z,2.40
2022-11-24T03:12:58.174Z,2.40
2022-11-24T03:15:27.889Z,2.40
2022-11-24T03:17:57.584Z,2.50
2022-11-24T03:20:27.046Z,2.40
2022-11-24T03:22:55.287Z,2.60
2022-11-24T03:25:23.535Z,2.70
2022-11-24T03:27:51.733Z,2.60
2022-11-24T03:30:20.277Z,2.50
2022-11-24T03:32:52.394Z,2.80
2022-11-24T03:35:21.065Z,3.00
2022-11-24T03:37:51.194Z,2.80
2022-11-24T03:40:19.726Z,2.60
2022-11-24T03:42:48.144Z,2.60
2022-11-24T03:45:44.035Z,2.60
2022-11-24T03:48:07.669Z,2.50
2022-11-24T03:50:35.884Z,2.50
2022-11-24T03:53:04.161Z,2.50
2022-11-24T03:55:32.444Z,2.40
2022-11-24T03:58:00.661Z,2.60
2022-11-24T04:00:29.219Z,3.00
2022-11-24T04:02:57.609Z,2.80
2022-11-24T04:05:27.241Z,2.60
2022-11-24T04:07:57.358Z,2.50
2022-11-24T04:10:25.721Z,2.60
2022-11-24T04:12:52.996Z,2.50
2022-11-24T04:15:22.474Z,2.50
2022-11-24T04:17:51.640Z,2.50
2022-11-24T04:20:20.270Z,2.50
2022-11-24T04:22:51.765Z,2.50
2022-11-24T04:25:20.428Z,2.70
2022-11-24T04:27:53.171Z,2.70
2022-11-24T04:30:23.081Z,2.70
2022-11-24T04:32:51.334Z,2.70
2022-11-24T04:35:20.177Z,2.70
2022-11-24T04:37:49.833Z,2.90
2022-11-24T04:40:18.848Z,2.70
2022-11-24T04:42:55.510Z,2.60
2022-11-24T04:45:24.495Z,2.50
2022-11-24T04:47:52.875Z,2.50
2022-11-24T04:50:21.354Z,2.60
2022-11-24T04:52:50.933Z,2.60
2022-11-24T04:55:19.693Z,2.50
2022-11-24T04:57:47.949Z,2.40
2022-11-24T05:00:17.253Z,2.60
2022-11-24T05:02:45.476Z,2.60
2022-11-24T05:05:13.998Z,2.60
2022-11-24T05:07:42.247Z,2.50
2022-11-24T05:10:38.271Z,2.50
2022-11-24T05:13:10.975Z,2.60
2022-11-24T05:15:40.286Z,2.70
2022-11-24T05:18:11.749Z,2.50
2022-11-24T05:20:40.315Z,2.50
2022-11-24T05:23:09.869Z,2.50
2022-11-24T05:25:40.519Z,2.50
2022-11-24T05:28:13.183Z,2.60
2022-11-24T05:30:42.698Z,2.80
2022-11-24T05:33:18.902Z,2.80
2022-11-24T05:35:47.691Z,2.90
2022-11-24T05:38:16.675Z,2.80
2022-11-24T05:40:46.420Z,2.70
2022-11-24T05:43:16.532Z,2.50
2022-11-24T05:45:45.657Z,2.40
2022-11-24T05:48:15.986Z,2.60
2022-11-24T05:50:44.256Z,2.60
2022-11-24T05:53:14.634Z,2.60
2022-11-24T05:55:43.137Z,2.50
2022-11-24T05:58:12.750Z,2.40
2022-11-24T06:00:41.030Z,2.60
2022-11-24T06:03:10.312Z,2.40
2022-11-24T06:05:39.008Z,2.40
2022-11-24T06:08:07.467Z,2.60
2022-11-24T06:10:35.672Z,2.50
2022-11-24T06:13:07.784Z,2.40
2022-11-24T06:15:37.719Z,2.40
2022-11-24T06:18:06.236Z,2.40
2022-11-24T06:20:34.373Z,2.40
2022-11-24T06:23:02.815Z,2.50
2022-11-24T06:25:31.921Z,2.50
2022-11-24T06:28:00.623Z,2.50
2022-11-24T06:30:28.901Z,2.60
2022-11-24T06:32:58.510Z,2.60
2022-11-24T06:35:26.643Z,2.70
2022-11-24T06:37:54.880Z,2.50
2022-11-24T06:40:23.034Z,2.40
2022-11-24T06:42:52.575Z,2.40
2022-11-24T06:45:20.905Z,2.50
2022-11-24T06:47:49.095Z,2.40
2022-11-24T06:50:18.875Z,2.40
2022-11-24T06:52:47.278Z,2.70
2022-11-24T06:55:15.624Z,2.80
2022-11-24T06:57:43.766Z,2.60
2022-11-24T07:00:13.432Z,2.60
2022-11-24T07:02:45.876Z,2.60
2022-11-24T07:05:14.673Z,2.50
2022-11-24T07:07:44.405Z,2.70
2022-11-24T07:10:13.038Z,2.60
2022-11-24T07:12:41.237Z,2.50
2022-11-24T07:15:10.852Z,2.50
2022-11-24T07:17:39.821Z,2.60
2022-11-24T07:20:10.727Z,2.60
2022-11-24T07:22:39.001Z,2.60
2022-11-24T07:25:10.251Z,2.50
2022-11-24T07:27:38.438Z,2.60
2022-11-24T07:30:08.640Z,2.40
2022-11-24T07:32:36.838Z,2.40
2022-11-24T07:35:05.974Z,2.40
2022-11-24T07:37:34.184Z,2.30
2022-11-24T07:40:02.410Z,2.40
2022-11-24T07:42:32.055Z,2.60
2022-11-24T07:45:00.292Z,2.60
2022-11-24T07:47:28.468Z,2.50
2022-11-24T07:49:56.688Z,2.40
2022-11-24T07:52:26.648Z,2.40
2022-11-24T07:54:54.877Z,2.20
2022-11-24T07:57:23.399Z,2.30
2022-11-24T07:59:52.997Z,2.60
2022-11-24T08:02:21.167Z,2.80
2022-11-24T08:04:49.512Z,2.70
2022-11-24T08:07:17.722Z,2.40
2022-11-24T08:09:45.896Z,2.30
2022-11-24T08:12:14.137Z,2.30
2022-11-24T08:14:42.282Z,2.30
2022-11-24T08:17:11.906Z,2.30
2022-11-24T08:19:40.085Z,2.30
2022-11-24T08:22:08.211Z,2.50
2022-11-24T08:24:36.708Z,2.70
2022-11-24T08:27:05.265Z,2.60
2022-11-24T08:29:33.616Z,2.50
2022-11-24T08:32:01.869Z,2.50
2022-11-24T08:34:31.730Z,2.40
2022-11-24T08:37:00.091Z,2.50
2022-11-24T08:39:28.279Z,2.40
2022-11-24T08:41:56.456Z,2.40
2022-11-24T08:44:24.856Z,2.40
2022-11-24T08:46:54.719Z,2.40
2022-11-24T08:49:23.343Z,2.40
2022-11-24T08:51:52.983Z,2.60
2022-11-24T08:54:21.585Z,2.50
2022-11-24T08:56:51.100Z,2.60
2022-11-24T08:59:19.485Z,2.60
2022-11-24T09:01:47.860Z,2.90
2022-11-24T09:04:16.192Z,2.70
2022-11-24T09:06:44.457Z,2.70
2022-11-24T09:09:14.551Z,2.80
2022-11-24T09:11:42.729Z,2.90
2022-11-24T09:14:10.885Z,3.00
2022-11-24T09:16:39.091Z,3.20
2022-11-24T09:19:09.040Z,3.40
2022-11-24T09:21:39.001Z,3.30
2022-11-24T09:24:09.016Z,3.00
2022-11-24T09:26:46.065Z,2.80
2022-11-24T09:29:16.012Z,3.10
2022-11-24T09:31:44.203Z,3.20
2022-11-24T09:34:16.558Z,3.20
2022-11-24T09:36:44.831Z,3.10
2022-11-24T09:39:13.561Z,3.50
2022-11-24T09:41:58.740Z,3.30
2022-11-24T09:45:02.887Z,3.20
2022-11-24T09:47:47.758Z,3.10
2022-11-24T09:50:21.342Z,3.10
2022-11-24T09:53:01.009Z,3.20
2022-11-24T09:55:40.560Z,3.40
2022-11-24T09:58:25.437Z,3.80
2022-11-24T10:00:57.163Z,4.00
2022-11-24T10:03:32.879Z,3.90
2022-11-24T10:06:12.706Z,4.20
2022-11-24T10:09:07.073Z,4.00
2022-11-24T10:11:44.427Z,3.70
2022-11-24T10:14:49.989Z,3.90
2022-11-24T10:17:39.381Z,3.90
2022-11-24T10:20:17.987Z,3.60
2022-11-24T10:23:00.575Z,3.50
2022-11-24T10:25:43.019Z,3.70
2022-11-24T10:28:16.698Z,3.70
2022-11-24T10:30:46.569Z,3.90
2022-11-24T10:33:24.259Z,3.70
2022-11-24T10:36:03.057Z,3.60
2022-11-24T10:38:38.249Z,3.40
2022-11-24T10:41:13.389Z,3.40
2022-11-24T10:43:43.441Z,3.30
2022-11-24T10:46:21.397Z,3.20
2022-11-24T10:48:54.619Z,3.30
2022-11-24T10:51:48.808Z,3.30
2022-11-24T10:54:19.885Z,3.40
2022-11-24T10:56:52.511Z,3.20
2022-11-24T10:59:35.477Z,3.20
2022-11-24T11:02:32.467Z,3.20
2022-11-24T11:05:35.066Z,3.30
2022-11-24T11:08:24.491Z,3.40
2022-11-24T11:11:14.224Z,3.60
2022-11-24T11:14:01.695Z,3.50
2022-11-24T11:16:39.652Z,3.50
2022-11-24T11:20:01.646Z,3.30
2022-11-24T11:22:32.669Z,3.40
2022-11-24T11:25:21.186Z,3.50
2022-11-24T11:27:50.092Z,3.40
2022-11-24T11:36:16.911Z,3.10
2022-11-24T11:38:48.729Z,3.20
2022-11-24T11:41:27.162Z,3.20
2022-11-24T11:44:14.119Z,3.40
2022-11-24T11:46:45.659Z,3.50
2022-11-24T11:49:17.585Z,3.60
2022-11-24T11:52:14.279Z,3.70
2022-11-24T11:55:29.394Z,3.50
2022-11-24T11:58:16.201Z,3.60
2022-11-24T12:00:59.540Z,3.90
2022-11-24T12:03:57.556Z,4.10
2022-11-24T12:07:02.351Z,4.00
2022-11-24T12:09:52.408Z,4.00
2022-11-24T12:12:48.635Z,4.00
2022-11-24T12:15:28.193Z,4.10
2022-11-24T12:18:26.789Z,4.10
2022-11-24T12:21:11.366Z,4.00
2022-11-24T12:23:58.033Z,4.00
2022-11-24T12:26:40.495Z,3.90
2022-11-24T12:29:43.450Z,3.90
2022-11-24T12:32:30.136Z,4.30
2022-11-24T12:35:17.006Z,4.60
2022-11-24T12:38:04.453Z,4.60
2022-11-24T12:40:58.071Z,4.40
2022-11-24T12:43:38.529Z,4.40
2022-11-24T12:46:19.163Z,4.30
2022-11-24T12:49:03.246Z,4.60
2022-11-24T12:51:38.550Z,4.30
2022-11-24T12:54:18.414Z,4.40
2022-11-24T12:56:54.747Z,4.30
2022-11-24T12:59:36.882Z,4.30
2022-11-24T13:02:24.729Z,4.20
2022-11-24T13:05:05.534Z,4.30
2022-11-24T13:07:46.171Z,4.40
2022-11-24T13:13:47.671Z,4.50
2022-11-24T13:16:35.574Z,4.60
2022-11-24T13:19:16.373Z,4.70
2022-11-24T13:22:04.407Z,4.80
2022-11-24T13:24:36.345Z,5.00
2022-11-24T13:27:46.812Z,4.90
2022-11-24T13:30:59.575Z,4.80
2022-11-24T13:33:41.099Z,4.70
2022-11-24T13:36:33.932Z,4.70
2022-11-24T13:39:05.609Z,4.60
2022-11-24T13:42:01.939Z,4.50
2022-11-24T13:44:59.014Z,4.50
2022-11-24T13:47:40.609Z,4.60
2022-11-24T13:50:49.601Z,5.30
2022-11-24T13:53:32.004Z,5.00
2022-11-24T13:56:06.865Z,4.80
2022-11-24T13:58:40.917Z,4.70
2022-11-24T14:01:19.922Z,4.70
2022-11-24T14:07:07.357Z,4.60
2022-11-24T14:09:44.806Z,4.60
2022-11-24T14:12:19.054Z,4.80
2022-11-24T14:14:50.234Z,4.70
2022-11-24T14:17:22.938Z,4.50
2022-11-24T14:19:54.611Z,4.60
2022-11-24T14:22:26.757Z,4.50
2022-11-24T14:24:59.375Z,4.70
2022-11-24T14:27:31.453Z,4.60
2022-11-24T14:30:02.255Z,4.60
2022-11-24T14:32:31.283Z,4.40
2022-11-24T14:34:59.641Z,4.30
2022-11-24T14:37:27.949Z,4.30
2022-11-24T14:39:57.586Z,4.30
2022-11-24T14:42:28.324Z,4.30
2022-11-24T14:44:59.724Z,4.60
2022-11-24T14:47:32.502Z,4.30
2022-11-24T14:50:12.789Z,4.30
2022-11-24T14:52:51.564Z,4.20
2022-11-24T14:55:31.309Z,4.20
2022-11-24T14:58:00.553Z,4.10
2022-11-24T15:00:31.415Z,4.50
2022-11-24T15:03:17.195Z,4.30
2022-11-24T15:05:56.332Z,4.10
2022-11-24T15:08:27.750Z,4.10
2022-11-24T15:11:03.921Z,4.10
2022-11-24T15:13:38.164Z,4.00
2022-11-24T15:16:18.318Z,3.90
2022-11-24T15:18:50.014Z,3.90
2022-11-24T15:21:31.869Z,3.90
2022-11-24T15:24:16.931Z,3.90
2022-11-24T15:26:47.300Z,3.90
2022-11-24T15:29:15.590Z,4.00
2022-11-24T15:31:49.219Z,3.90
2022-11-24T15:34:20.584Z,3.80
2022-11-24T15:36:48.857Z,3.80
2022-11-24T15:39:20.895Z,3.80
2022-11-24T15:41:50.549Z,4.00
2022-11-24T15:44:18.706Z,3.90
2022-11-24T15:46:47.061Z,3.90
2022-11-24T15:49:15.320Z,3.90
2022-11-24T15:51:46.116Z,3.90
2022-11-24T15:54:18.018Z,3.90
2022-11-24T15:56:46.329Z,3.80
2022-11-24T15:59:20.680Z,3.90
2022-11-24T16:01:50.922Z,3.80
2022-11-24T16:04:19.457Z,3.80
2022-11-24T16:06:47.988Z,3.90
2022-11-24T16:09:18.064Z,4.00
2022-11-24T16:11:46.393Z,4.00
2022-11-24T16:14:15.989Z,4.00
2022-11-24T16:16:44.350Z,3.90
2022-11-24T16:19:13.032Z,3.80
2022-11-24T16:21:41.125Z,3.80
2022-11-24T16:24:09.722Z,3.80
2022-11-24T16:26:37.872Z,3.80
2022-11-24T16:29:06.067Z,3.80
2022-11-24T16:31:35.607Z,3.90
2022-11-24T16:34:04.090Z,4.00
2022-11-24T16:36:32.244Z,4.00
2022-11-24T16:39:01.285Z,4.20
2022-11-24T16:41:29.649Z,4.20
2022-11-24T16:43:58.263Z,4.10
2022-11-24T16:46:26.644Z,4.10
2022-11-24T16:49:01.172Z,4.20
2022-11-24T16:51:34.386Z,4.20
2022-11-24T16:54:04.904Z,4.20
2022-11-24T16:56:33.461Z,4.30
2022-11-24T16:59:02.031Z,4.10
2022-11-24T17:01:32.721Z,4.20
2022-11-24T17:04:02.720Z,3.90
2022-11-24T17:06:33.137Z,4.30
2022-11-24T17:09:01.559Z,4.50
2022-11-24T17:11:30.260Z,4.20
2022-11-24T17:13:59.502Z,4.10
2022-11-24T17:16:29.446Z,4.10
2022-11-24T17:18:58.640Z,4.00
2022-11-24T17:21:29.350Z,3.90
2022-11-24T17:24:00.626Z,3.90
2022-11-24T17:26:29.667Z,4.10
2022-11-24T17:28:58.508Z,4.00
2022-11-24T17:31:30.748Z,4.10
2022-11-24T17:34:01.481Z,4.00
2022-11-24T17:36:34.328Z,4.00
2022-11-24T17:39:04.417Z,3.90
2022-11-24T17:41:33.698Z,3.90
2022-11-24T17:44:01.921Z,3.90
2022-11-24T17:46:31.812Z,3.90
2022-11-24T17:49:00.185Z,3.90
2022-11-24T17:51:30.100Z,3.90
2022-11-24T17:53:58.500Z,3.80
2022-11-24T17:56:28.784Z,3.90
2022-11-24T17:58:58.896Z,3.80
2022-11-24T18:01:28.478Z,3.90
2022-11-24T18:03:57.317Z,4.50
2022-11-24T18:06:25.881Z,4.10
2022-11-24T18:08:57.834Z,4.00
2022-11-24T18:11:31.337Z,4.00
2022-11-24T18:14:03.445Z,3.90
2022-11-24T18:16:33.996Z,3.80
2022-11-24T18:19:10.459Z,4.20
2022-11-24T18:21:41.376Z,4.10
2022-11-24T18:24:12.932Z,4.20
2022-11-24T18:26:42.682Z,4.00
2022-11-24T18:29:11.938Z,3.90
2022-11-24T18:31:40.252Z,4.00
2022-11-24T18:34:09.076Z,4.00
2022-11-24T18:36:37.718Z,3.90
2022-11-24T18:39:08.634Z,3.90
2022-11-24T18:41:38.271Z,3.90
2022-11-24T18:44:08.631Z,3.80
2022-11-24T18:46:37.614Z,3.80
2022-11-24T18:49:07.242Z,4.00
2022-11-24T18:51:36.017Z,4.00
2022-11-24T18:54:05.399Z,3.90
2022-11-24T18:56:33.750Z,3.80
2022-11-24T18:59:03.832Z,3.80
2022-11-24T19:01:32.515Z,3.80
2022-11-24T19:04:03.478Z,3.90
2022-11-24T19:06:34.408Z,4.10
2022-11-24T19:09:06.000Z,4.00
2022-11-24T19:11:38.202Z,4.00
2022-11-24T19:14:10.197Z,4.30
2022-11-24T19:16:39.380Z,4.30
2022-11-24T19:19:08.775Z,4.10
2022-11-24T19:21:39.036Z,4.40
2022-11-24T19:24:10.643Z,4.40
2022-11-24T19:26:40.078Z,4.30
2022-11-24T19:29:10.317Z,4.30
2022-11-24T19:31:39.394Z,4.10
2022-11-24T19:34:08.575Z,4.10
2022-11-24T19:36:37.630Z,4.20
2022-11-24T19:39:06.394Z,4.10
2022-11-24T19:41:35.185Z,4.20
2022-11-24T19:44:03.758Z,4.10
2022-11-24T19:46:33.554Z,4.00
2022-11-24T19:49:03.900Z,3.90
2022-11-24T19:51:35.274Z,3.90
2022-11-24T19:54:05.711Z,3.80
2022-11-24T19:56:37.079Z,3.80
2022-11-24T19:59:07.546Z,3.80
2022-11-24T20:01:41.289Z,3.70
2022-11-24T20:04:13.878Z,3.80
2022-11-24T20:06:44.615Z,3.90
2022-11-24T20:09:15.647Z,3.90
2022-11-24T20:11:44.514Z,3.90
2022-11-24T20:14:15.117Z,3.90
2022-11-24T20:16:46.524Z,4.00
2022-11-24T20:19:17.940Z,3.90
2022-11-24T20:21:49.233Z,3.80
2022-11-24T20:24:21.368Z,3.90
2022-11-24T20:26:52.660Z,3.90
2022-11-24T20:29:21.337Z,3.70
2022-11-24T20:31:53.706Z,3.80
2022-11-24T20:34:23.110Z,3.70
2022-11-24T20:36:52.713Z,3.80
2022-11-24T20:39:26.353Z,3.90
2022-11-24T20:41:56.178Z,4.00
2022-11-24T20:44:26.618Z,4.00
2022-11-24T20:46:59.693Z,4.00
2022-11-24T20:49:29.023Z,4.00
2022-11-24T20:51:57.427Z,3.70
2022-11-24T20:54:26.221Z,3.90
2022-11-24T20:56:54.918Z,3.80
2022-11-24T20:59:25.728Z,3.80
2022-11-24T21:01:57.053Z,3.70
2022-11-24T21:04:28.396Z,3.70
2022-11-24T21:06:57.061Z,3.80
2022-11-24T21:09:27.132Z,3.80
2022-11-24T21:11:55.711Z,3.70
2022-11-24T21:14:24.430Z,3.70
2022-11-24T21:16:52.772Z,3.70
2022-11-24T21:19:22.513Z,3.70
2022-11-24T21:21:50.820Z,3.70
2022-11-24T21:24:21.547Z,3.60
2022-11-24T21:26:51.720Z,3.60
2022-11-24T21:29:23.356Z,3.60
2022-11-24T21:31:52.289Z,3.60
2022-11-24T21:34:22.413Z,3.70
2022-11-24T21:36:50.645Z,3.90
2022-11-24T21:39:19.094Z,3.80
2022-11-24T21:41:47.575Z,3.70
2022-11-24T21:44:16.297Z,3.60
2022-11-24T21:46:49.627Z,3.60
2022-11-24T21:49:23.852Z,3.70
2022-11-24T21:51:55.544Z,3.70
2022-11-24T21:54:24.493Z,3.60
2022-11-24T21:56:54.310Z,3.80
2022-11-24T21:59:22.903Z,4.00
2022-11-24T22:01:51.272Z,4.10
2022-11-24T22:04:19.468Z,4.00
2022-11-24T22:06:49.066Z,3.90
2022-11-24T22:09:18.413Z,4.00
2022-11-24T22:11:49.145Z,3.90
2022-11-24T22:14:17.575Z,3.80
2022-11-24T22:16:46.109Z,3.70
2022-11-24T22:19:14.629Z,3.70
2022-11-24T22:21:42.803Z,3.80
2022-11-24T22:24:12.992Z,4.00
2022-11-24T22:26:41.419Z,3.80
2022-11-24T22:29:09.704Z,3.70
2022-11-24T22:31:38.041Z,3.90
2022-11-24T22:34:06.438Z,3.40
2022-11-24T22:36:36.566Z,3.70
2022-11-24T22:39:07.107Z,3.60
2022-11-24T22:41:37.181Z,3.70
2022-11-24T22:44:06.891Z,3.70
2022-11-24T22:46:35.237Z,3.70
2022-11-24T22:49:03.734Z,3.70
2022-11-24T22:51:35.023Z,3.60
2022-11-24T22:54:05.574Z,3.80
2022-11-24T22:56:36.029Z,4.10
2022-11-24T22:59:05.502Z,4.10
2022-11-24T23:01:34.692Z,4.20
2022-11-24T23:04:03.920Z,4.00
2022-11-24T23:06:34.465Z,3.90
2022-11-24T23:09:05.232Z,4.00
2022-11-24T23:11:38.690Z,4.00
2022-11-24T23:14:09.108Z,3.90
2022-11-24T23:16:37.466Z,3.80
2022-11-24T23:19:06.325Z,3.90
2022-11-24T23:21:38.200Z,4.20
2022-11-24T23:24:09.036Z,4.20
2022-11-24T23:26:41.926Z,4.10
2022-11-24T23:29:12.459Z,3.90
2022-11-24T23:31:41.087Z,3.80
2022-11-24T23:34:09.961Z,3.80
2022-11-24T23:36:38.194Z,3.70
2022-11-24T23:39:08.817Z,3.70
2022-11-24T23:41:38.582Z,3.70
2022-11-24T23:44:07.788Z,3.70
2022-11-24T23:46:35.988Z,3.70
2022-11-24T23:49:04.666Z,3.70
2022-11-24T23:51:34.333Z,3.70
2022-11-24T23:54:02.952Z,3.70
2022-11-24T23:56:33.593Z,3.80
2022-11-24T23:59:05.150Z,3.70
